Time;durP1;ratioP1;P1;durP2;ratioP2;P2;SDS_P1;SDS_P2;PMS_P1;PMS_P2;Temp;Humidity;BMP_temperature;BMP_pressure;BME280_temperature;BME280_humidity;BME280_pressure;Samples;Min_cycle;Max_cycle;Signal;HPM_P1;HPM_P2
2023/05/05 00:00:48;;;;;;;59.60;30.70;;;;;;;14.33;100.00;98714.91;5057866;28;20123;-78
2023/05/05 00:03:34;;;;;;;56.90;29.48;;;;;;;14.37;100.00;98715.28;5052690;28;20454;-78
2023/05/05 00:06:18;;;;;;;54.72;29.85;;;;;;;14.38;100.00;98719.53;5059848;28;20122;-79
2023/05/05 00:09:02;;;;;;;57.67;31.05;;;;;;;14.41;100.00;98714.59;5057812;28;20044;-79
2023/05/05 00:11:46;;;;;;;;;;;;;;;14.33;100.00;98704.34;5057930;28;20067;-78
2023/05/05 00:14:30;;;;;;;47.42;28.77;;;;;;;14.36;100.00;98706.56;5054358;28;20020;-78
2023/05/05 00:17:14;;;;;;;56.85;28.88;;;;;;;14.36;100.00;98709.22;5059154;28;20051;-78
2023/05/05 00:19:58;;;;;;;58.95;30.55;;;;;;;14.33;100.00;98688.53;5061046;28;20135;-77
2023/05/05 00:22:42;;;;;;;54.75;31.35;;;;;;;14.36;100.00;98693.38;5061279;28;20051;-77
2023/05/05 00:25:26;;;;;;;66.35;31.25;;;;;;;14.38;100.00;98688.66;5058675;28;20406;-77
2023/05/05 00:28:10;;;;;;;65.88;32.97;;;;;;;14.41;100.00;98685.56;5061965;28;20039;-78
2023/05/05 00:30:54;;;;;;;67.65;32.83;;;;;;;14.47;100.00;98678.56;5063936;28;20044;-78
2023/05/05 00:33:39;;;;;;;64.90;31.38;;;;;;;14.43;100.00;98675.56;5062278;28;20043;-78
2023/05/05 00:36:23;;;;;;;62.35;32.67;;;;;;;14.42;100.00;98681.88;5062198;28;20086;-78
2023/05/05 00:39:07;;;;;;;71.50;33.00;;;;;;;14.45;100.00;98670.06;5063015;28;20129;-78
2023/05/05 00:41:51;;;;;;;61.08;31.15;;;;;;;14.41;100.00;98664.44;5056949;28;20040;-78
2023/05/05 00:44:38;;;;;;;68.35;33.67;;;;;;;14.38;100.00;98662.25;5064252;28;20112;-78
2023/05/05 00:47:22;;;;;;;67.10;33.30;;;;;;;14.39;100.00;98663.03;5064993;28;20406;-78
2023/05/05 00:50:08;;;;;;;61.70;33.42;;;;;;;14.43;100.00;98661.56;5062899;28;20441;-78
2023/05/05 00:52:55;;;;;;;65.75;32.90;;;;;;;14.39;100.00;98650.66;5064930;28;20493;-78
2023/05/05 00:55:40;;;;;;;75.35;34.15;;;;;;;14.39;100.00;98655.13;5059903;28;20224;-79
2023/05/05 00:58:24;;;;;;;77.18;35.25;;;;;;;14.43;100.00;98661.56;5065242;28;20592;-79
2023/05/05 01:01:09;;;;;;;71.15;36.15;;;;;;;14.32;100.00;98655.22;5059472;28;20044;-78
2023/05/05 01:03:54;;;;;;;72.35;36.30;;;;;;;14.31;100.00;98643.06;5060282;28;20086;-78
2023/05/05 01:07:09;;;;;;;77.25;35.25;;;;;;;14.21;100.00;98646.28;5058441;28;20108;-78
2023/05/05 01:10:01;;;;;;;62.05;35.38;;;;;;;14.26;100.00;98645.59;5061067;28;20370;-78
2023/05/05 01:12:57;;;;;;;65.85;35.45;;;;;;;14.23;100.00;98646.06;5065738;28;20044;-79
2023/05/05 01:16:18;;;;;;;76.47;36.72;;;;;;;14.21;100.00;98648.13;5061338;28;20128;-78
2023/05/05 01:19:24;;;;;;;70.45;35.22;;;;;;;14.17;100.00;98641.69;5060678;28;20048;-78
2023/05/05 01:22:12;;;;;;;77.95;36.75;;;;;;;14.29;100.00;98642.50;5061199;28;20089;-78
2023/05/05 01:25:19;;;;;;;77.03;38.17;;;;;;;14.42;100.00;98637.00;5054793;28;20044;-78
2023/05/05 01:28:45;;;;;;;78.35;37.78;;;;;;;14.35;100.00;98633.69;5057521;28;20406;-78
2023/05/05 01:31:50;;;;;;;69.63;40.08;;;;;;;14.22;100.00;98629.41;5055325;28;20044;-78
2023/05/05 01:34:59;;;;;;;68.45;36.42;;;;;;;14.24;100.00;98640.53;5054420;28;20124;-78
2023/05/05 01:37:52;;;;;;;62.53;35.60;;;;;;;14.32;100.00;98639.38;5058763;28;20071;-78
2023/05/05 01:40:43;;;;;;;70.67;35.93;;;;;;;14.32;100.00;98638.59;5062966;28;20516;-78
2023/05/05 01:43:31;;;;;;;63.33;35.17;;;;;;;14.31;100.00;98648.34;5056188;28;20265;-77
2023/05/05 01:46:17;;;;;;;69.90;35.97;;;;;;;14.31;100.00;98642.28;5057272;28;20099;-77
2023/05/05 01:49:03;;;;;;;73.75;37.08;;;;;;;14.28;100.00;98635.59;5056497;28;20106;-78
2023/05/05 01:51:48;;;;;;;74.00;36.58;;;;;;;14.36;100.00;98635.28;5062928;28;20048;-77
2023/05/05 01:54:33;;;;;;;69.75;37.72;;;;;;;14.32;100.00;98626.19;5060178;28;20083;-78
2023/05/05 01:57:19;;;;;;;73.28;37.92;;;;;;;14.19;100.00;98637.00;5060877;28;20130;-78
2023/05/05 02:00:06;;;;;;;65.63;36.63;;;;;;;14.23;100.00;98628.38;5058251;28;20392;-77
2023/05/05 02:02:53;;;;;;;74.95;37.97;;;;;;;14.16;100.00;98629.53;5060989;28;20042;-77
2023/05/05 02:05:42;;;;;;;62.15;33.40;;;;;;;14.08;100.00;98628.81;5059820;28;20463;-78
2023/05/05 02:08:28;;;;;;;71.55;36.40;;;;;;;14.18;100.00;98633.53;5050877;28;20498;-78
2023/05/05 02:11:14;;;;;;;54.58;33.05;;;;;;;14.17;100.00;98628.50;5060707;28;20113;-78
2023/05/05 02:14:00;;;;;;;73.40;38.50;;;;;;;14.05;100.00;98633.72;5061570;28;20043;-78
2023/05/05 02:16:44;;;;;;;67.40;36.40;;;;;;;14.37;100.00;98631.59;5057981;28;20043;-78
2023/05/05 02:19:33;;;;;;;69.53;37.40;;;;;;;14.25;100.00;98625.50;5062050;28;20486;-78
2023/05/05 02:22:17;;;;;;;62.53;34.42;;;;;;;14.48;100.00;98632.63;5062605;28;20102;-78
2023/05/05 02:25:02;;;;;;;59.05;34.72;;;;;;;14.47;100.00;98630.22;5059347;28;20048;-78
2023/05/05 02:27:48;;;;;;;64.47;36.00;;;;;;;14.39;100.00;98629.53;5058838;28;20098;-78
2023/05/05 02:30:34;;;;;;;57.10;33.17;;;;;;;14.43;100.00;98627.22;5056544;28;20091;-77
2023/05/05 02:33:20;;;;;;;63.55;35.88;;;;;;;14.39;100.00;98626.91;5059398;28;20044;-78
2023/05/05 02:36:20;;;;;;;59.47;34.88;;;;;;;14.41;100.00;98630.09;5061120;28;20178;-78
2023/05/05 02:39:20;;;;;;;68.13;36.47;;;;;;;14.47;100.00;98627.56;5059385;28;20047;-79
2023/05/05 02:42:07;;;;;;;51.75;32.20;;;;;;;14.49;100.00;98634.25;5058218;28;20059;-78
2023/05/05 02:44:54;;;;;;;53.38;32.55;;;;;;;14.55;100.00;98633.31;5062781;28;20395;-78
2023/05/05 02:47:38;;;;;;;59.10;33.15;;;;;;;14.49;100.00;98636.88;5061609;28;20035;-78
2023/05/05 02:50:22;;;;;;;50.92;32.22;;;;;;;14.47;100.00;98630.22;5056203;28;20094;-79
2023/05/05 02:53:06;;;;;;;59.63;33.38;;;;;;;14.41;100.00;98638.03;5062991;28;20132;-78
2023/05/05 02:55:54;;;;;;;55.45;34.13;;;;;;;14.45;100.00;98637.56;5061921;28;20059;-78
2023/05/05 02:58:51;;;;;;;56.83;32.97;;;;;;;14.51;100.00;98636.63;5055342;28;20797;-78
2023/05/05 03:01:35;;;;;;;60.67;34.88;;;;;;;14.37;100.00;98636.88;5060483;28;20044;-78
2023/05/05 03:04:30;;;;;;;56.90;33.92;;;;;;;14.41;100.00;98634.56;5062168;28;20093;-78
2023/05/05 03:07:32;;;;;;;49.97;32.42;;;;;;;14.48;100.00;98637.09;5060324;28;20038;-78
2023/05/05 03:10:20;;;;;;;59.08;35.20;;;;;;;14.43;100.00;98632.50;5055088;28;20071;-78
2023/05/05 03:13:08;;;;;;;54.17;34.20;;;;;;;14.42;100.00;98628.25;5054496;28;20083;-78
2023/05/05 03:15:55;;;;;;;59.03;36.03;;;;;;;14.31;100.00;98626.44;5063268;28;20049;-78
2023/05/05 03:18:41;;;;;;;48.47;31.45;;;;;;;14.27;100.00;98634.00;5057580;28;20048;-78
2023/05/05 03:21:25;;;;;;;50.33;32.63;;;;;;;14.26;100.00;98629.75;5055916;28;20093;-79
2023/05/05 03:24:18;;;;;;;49.88;31.88;;;;;;;14.23;100.00;98630.22;5059878;28;20048;-78
2023/05/05 03:27:02;;;;;;;50.83;31.83;;;;;;;14.13;100.00;98628.13;5058909;28;20415;-78
2023/05/05 03:29:46;;;;;;;48.03;32.83;;;;;;;14.09;100.00;98625.16;5057665;28;20043;-78
2023/05/05 03:32:31;;;;;;;52.60;32.55;;;;;;;14.06;100.00;98625.59;5060738;28;20036;-77
2023/05/05 03:35:14;;;;;;;51.50;31.83;;;;;;;13.96;100.00;98620.09;5055292;28;20460;-77
2023/05/05 03:37:58;;;;;;;49.28;30.98;;;;;;;14.02;100.00;98624.44;5058270;28;20047;-77
2023/05/05 03:40:42;;;;;;;48.80;33.13;;;;;;;13.97;100.00;98616.41;5053632;28;20124;-77
2023/05/05 03:43:26;;;;;;;50.83;31.67;;;;;;;14.04;100.00;98621.56;5059843;28;20112;-78
2023/05/05 03:46:10;;;;;;;48.42;31.42;;;;;;;13.94;100.00;98616.84;5060621;28;20059;-78
2023/05/05 03:48:56;;;;;;;49.90;32.13;;;;;;;13.87;100.00;98616.16;5059097;28;20036;-78
2023/05/05 03:51:40;;;;;;;45.42;30.52;;;;;;;13.84;100.00;98615.59;5056010;28;20197;-77
2023/05/05 03:54:24;;;;;;;47.58;30.00;;;;;;;13.90;100.00;98619.16;5056652;28;20493;-77
2023/05/05 03:57:08;;;;;;;46.70;29.40;;;;;;;13.90;100.00;98608.59;5061273;28;20051;-77
2023/05/05 03:59:53;;;;;;;45.22;29.40;;;;;;;13.95;100.00;98618.47;5063528;28;20047;-77
2023/05/05 04:02:37;;;;;;;42.38;29.40;;;;;;;13.93;100.00;98617.88;5058499;28;20043;-77
2023/05/05 04:05:21;;;;;;;51.47;32.63;;;;;;;13.91;100.00;98609.41;5054352;28;20152;-77
2023/05/05 04:08:05;;;;;;;45.42;30.05;;;;;;;13.87;100.00;98610.88;5057490;28;20052;-77
2023/05/05 04:10:50;;;;;;;48.00;30.77;;;;;;;13.92;100.00;98611.81;5061783;28;20039;-77
2023/05/05 04:13:34;;;;;;;57.47;34.45;;;;;;;13.91;100.00;98614.66;5063085;28;20533;-78
2023/05/05 04:16:18;;;;;;;54.83;33.92;;;;;;;13.95;100.00;98608.72;5059501;28;20071;-77
2023/05/05 04:19:02;;;;;;;64.65;35.10;;;;;;;13.95;100.00;98614.00;5068529;28;20043;-78
2023/05/05 04:21:48;;;;;;;64.45;35.10;;;;;;;14.01;100.00;98609.66;5063967;28;20181;-77
2023/05/05 04:24:32;;;;;;;59.20;33.88;;;;;;;14.12;100.00;98613.34;5064629;28;20547;-77
2023/05/05 04:27:16;;;;;;;54.50;33.40;;;;;;;14.14;100.00;98609.41;5063087;28;20063;-77
2023/05/05 04:30:00;;;;;;;50.78;32.00;;;;;;;14.26;100.00;98612.09;5063287;28;20048;-78
2023/05/05 04:32:44;;;;;;;49.35;30.85;;;;;;;14.33;100.00;98614.59;5061229;28;20051;-78
2023/05/05 04:35:28;;;;;;;49.63;30.95;;;;;;;14.46;100.00;98616.22;5061465;28;20051;-77
2023/05/05 04:38:12;;;;;;;44.65;30.48;;;;;;;14.52;100.00;98620.56;5058344;28;20579;-78
2023/05/05 04:40:56;;;;;;;43.10;28.13;;;;;;;14.61;100.00;98609.66;5060359;28;20047;-76
2023/05/05 04:43:40;;;;;;;39.38;27.60;;;;;;;14.64;100.00;98617.91;5065500;28;20524;-76
2023/05/05 04:46:24;;;;;;;40.65;25.98;;;;;;;14.70;100.00;98617.00;5060765;28;20131;-77
2023/05/05 04:49:08;;;;;;;44.35;27.40;;;;;;;14.82;100.00;98626.78;5061203;28;20182;-76
2023/05/05 04:51:52;;;;;;;43.22;26.70;;;;;;;14.91;100.00;98619.28;5060210;28;20060;-76
2023/05/05 04:54:36;;;;;;;41.13;26.55;;;;;;;14.96;100.00;98622.84;5062042;28;20132;-77
2023/05/05 04:57:20;;;;;;;39.63;27.50;;;;;;;14.94;100.00;98624.94;5057969;28;20043;-76
2023/05/05 05:00:05;;;;;;;38.90;25.95;;;;;;;15.04;100.00;98621.69;5059355;28;20090;-77
2023/05/05 05:02:49;;;;;;;39.15;25.70;;;;;;;15.05;100.00;98615.38;5055009;28;20125;-76
2023/05/05 05:05:33;;;;;;;39.42;26.23;;;;;;;15.16;100.00;98621.66;5058271;28;20395;-76
2023/05/05 05:08:18;;;;;;;37.30;24.65;;;;;;;15.22;100.00;98622.53;5060152;28;20040;-78
2023/05/05 05:11:02;;;;;;;37.88;24.88;;;;;;;15.26;100.00;98631.63;5060885;28;20386;-78
2023/05/05 05:13:46;;;;;;;37.63;24.60;;;;;;;15.33;100.00;98628.81;5062783;28;20445;-77
2023/05/05 05:16:30;;;;;;;39.50;25.42;;;;;;;15.40;100.00;98626.84;5060421;28;20501;-78
2023/05/05 05:19:14;;;;;;;41.75;25.35;;;;;;;15.16;100.00;98626.94;5059065;28;20708;-79
2023/05/05 05:21:58;;;;;;;35.63;25.98;;;;;;;15.21;100.00;98626.22;5059386;28;20593;-79
2023/05/05 05:24:42;;;;;;;36.35;25.08;;;;;;;15.35;100.00;98632.06;5066134;28;20047;-79
2023/05/05 05:27:26;;;;;;;37.28;25.33;;;;;;;15.37;100.00;98624.69;5059540;28;20445;-79
2023/05/05 05:30:10;;;;;;;35.58;24.52;;;;;;;15.44;100.00;98627.97;5061219;28;20051;-78
2023/05/05 05:32:54;;;;;;;38.00;24.88;;;;;;;15.46;100.00;98636.47;5059232;28;20263;-79
2023/05/05 05:35:39;;;;;;;35.90;24.42;;;;;;;15.52;100.00;98632.09;5058235;28;20157;-78
2023/05/05 05:38:23;;;;;;;34.92;24.65;;;;;;;15.53;100.00;98645.09;5060092;28;20110;-77
2023/05/05 05:41:07;;;;;;;39.22;26.23;;;;;;;15.60;100.00;98636.19;5061463;28;20070;-78
2023/05/05 05:43:51;;;;;;;46.42;29.90;;;;;;;15.62;100.00;98645.47;5065456;28;20031;-77
2023/05/05 05:46:35;;;;;;;48.20;31.25;;;;;;;15.55;100.00;98635.06;5058768;28;20047;-77
2023/05/05 05:49:19;;;;;;;46.15;31.90;;;;;;;15.61;100.00;98637.81;5060039;28;20521;-79
2023/05/05 05:52:03;;;;;;;;;;;;;;;15.63;100.00;98648.94;5063774;28;20044;-78
2023/05/05 05:54:47;;;;;;;44.42;30.90;;;;;;;15.70;100.00;98652.22;5060730;28;19957;-78
2023/05/05 05:57:31;;;;;;;46.45;32.05;;;;;;;15.78;100.00;98648.41;5060877;28;20040;-82
2023/05/05 06:00:15;;;;;;;48.28;32.08;;;;;;;15.89;100.00;98652.06;5056181;28;20552;-79
2023/05/05 06:03:00;;;;;;;54.35;35.10;;;;;;;16.02;100.00;98654.41;5056962;28;20047;-79
2023/05/05 06:05:45;;;;;;;46.78;30.17;;;;;;;16.09;100.00;98654.25;5058877;28;20545;-79
2023/05/05 06:08:50;;;;;;;48.53;34.35;;;;;;;16.26;100.00;98648.94;5060229;28;20095;-79
2023/05/05 06:11:35;;;;;;;51.17;33.55;;;;;;;16.57;100.00;98654.72;5063701;28;20089;-80
2023/05/05 06:14:22;;;;;;;55.63;41.00;;;;;;;16.67;100.00;98662.78;5062115;28;20051;-80
2023/05/05 06:17:06;;;;;;;39.35;27.10;;;;;;;16.86;100.00;98662.50;5058121;28;20090;-78
2023/05/05 06:19:50;;;;;;;37.25;26.42;;;;;;;17.03;100.00;98672.28;5061526;28;20055;-80
2023/05/05 06:22:33;;;;;;;36.55;25.95;;;;;;;17.02;100.00;98670.69;5054098;28;20075;-80
2023/05/05 06:25:18;;;;;;;37.70;24.75;;;;;;;17.10;100.00;98672.94;5060684;28;20170;-79
2023/05/05 06:28:02;;;;;;;33.40;23.20;;;;;;;17.18;100.00;98669.03;5060475;28;20040;-79
2023/05/05 06:30:46;;;;;;;37.35;23.92;;;;;;;17.35;100.00;98674.28;5058648;28;20445;-77
2023/05/05 06:33:30;;;;;;;35.58;25.20;;;;;;;17.55;100.00;98669.19;5060154;28;20043;-77
2023/05/05 06:36:15;;;;;;;31.55;23.42;;;;;;;17.75;100.00;98667.78;5051225;28;20045;-79
2023/05/05 06:38:59;;;;;;;35.67;22.85;;;;;;;17.80;100.00;98670.50;5058249;28;20046;-78
2023/05/05 06:41:43;;;;;;;33.03;21.70;;;;;;;17.86;100.00;98674.00;5050907;28;20555;-79
2023/05/05 06:44:27;;;;;;;33.45;21.88;;;;;;;17.84;100.00;98684.84;5055862;28;20036;-78
2023/05/05 06:47:11;;;;;;;28.20;20.60;;;;;;;17.76;100.00;98685.31;5052347;28;20043;-78
2023/05/05 06:49:55;;;;;;;31.33;21.30;;;;;;;17.76;100.00;98684.50;5051666;28;20124;-77
2023/05/05 06:52:40;;;;;;;24.83;18.63;;;;;;;17.63;100.00;98686.53;5051515;28;20052;-78
2023/05/05 06:55:24;;;;;;;32.95;19.60;;;;;;;17.67;100.00;98681.50;5054326;28;20043;-77
2023/05/05 06:58:08;;;;;;;26.92;19.35;;;;;;;17.65;100.00;98681.75;5048405;28;20083;-79
2023/05/05 07:00:52;;;;;;;27.88;18.58;;;;;;;17.76;100.00;98693.28;5051090;28;20095;-78
2023/05/05 07:03:37;;;;;;;25.67;18.83;;;;;;;17.95;100.00;98688.41;5057902;28;20398;-80
2023/05/05 07:06:21;;;;;;;31.33;18.85;;;;;;;17.96;100.00;98694.53;5055027;28;20485;-80
2023/05/05 07:09:05;;;;;;;25.67;17.80;;;;;;;17.95;100.00;98692.94;5059031;28;20059;-81
2023/05/05 07:11:50;;;;;;;27.85;17.60;;;;;;;17.89;100.00;98696.59;5061314;28;20120;-81
2023/05/05 07:14:34;;;;;;;24.52;16.85;;;;;;;17.86;100.00;98703.19;5054916;28;20379;-81
2023/05/05 07:17:18;;;;;;;24.38;16.27;;;;;;;17.85;100.00;98699.72;5051807;28;20118;-82
2023/05/05 07:20:02;;;;;;;24.27;16.48;;;;;;;17.81;100.00;98695.97;5053606;28;20036;-80
2023/05/05 07:22:46;;;;;;;21.40;14.57;;;;;;;17.79;100.00;98700.75;5058498;28;20045;-80
2023/05/05 07:25:31;;;;;;;18.60;12.40;;;;;;;17.63;100.00;98701.63;5052649;28;20067;-81
2023/05/05 07:28:15;;;;;;;21.40;13.60;;;;;;;17.59;100.00;98701.34;5054573;28;20521;-82
2023/05/05 07:31:00;;;;;;;15.65;13.15;;;;;;;17.48;100.00;98694.31;5052052;28;20387;-82
2023/05/05 07:33:44;;;;;;;15.18;11.77;;;;;;;17.54;100.00;98704.75;5055631;28;20040;-83
2023/05/05 07:36:29;;;;;;;15.82;12.43;;;;;;;17.56;100.00;98699.16;5047247;28;20163;-84
2023/05/05 07:39:14;;;;;;;14.40;12.18;;;;;;;17.55;100.00;98706.34;5060889;28;20127;-82
2023/05/05 07:41:58;;;;;;;17.88;11.90;;;;;;;17.56;100.00;98707.94;5054750;28;20067;-83
2023/05/05 07:44:42;;;;;;;14.77;10.63;;;;;;;17.52;100.00;98711.34;5064023;28;20052;-84
2023/05/05 07:47:26;;;;;;;18.48;11.82;;;;;;;17.68;100.00;98707.00;5056468;28;20095;-84
2023/05/05 07:50:10;;;;;;;14.70;10.95;;;;;;;17.83;100.00;98712.47;5061648;28;20128;-84
2023/05/05 07:52:54;;;;;;;15.07;11.68;;;;;;;17.95;100.00;98716.84;5058967;28;20044;-87
2023/05/05 07:55:38;;;;;;;16.50;11.63;;;;;;;18.18;100.00;98717.59;5060758;28;20097;-84
2023/05/05 07:58:22;;;;;;;;;;;;;;;18.30;100.00;98718.25;5045188;28;20043;-77
2023/05/05 08:01:09;;;;;;;18.35;11.25;;;;;;;18.23;100.00;98709.66;5051090;28;19934;-77
2023/05/05 08:03:53;;;;;;;18.40;11.70;;;;;;;18.31;100.00;98709.22;5053085;28;20471;-79
2023/05/05 08:06:37;;;;;;;15.57;10.60;;;;;;;18.46;100.00;98719.16;5052917;28;20044;-78
2023/05/05 08:09:21;;;;;;;16.00;10.65;;;;;;;18.59;100.00;98719.78;5046413;28;20142;-77
2023/05/05 08:12:05;;;;;;;13.77;11.43;;;;;;;18.47;100.00;98722.59;5051158;28;20085;-77
2023/05/05 08:14:49;;;;;;;16.13;11.68;;;;;;;18.51;100.00;98716.53;5053568;28;20075;-77
2023/05/05 08:17:48;;;;;;;12.30;9.68;;;;;;;18.63;100.00;98721.66;5045029;28;20048;-77
2023/05/05 08:20:32;;;;;;;14.93;10.27;;;;;;;18.91;100.00;98725.03;5048998;28;20098;-77
2023/05/05 08:23:16;;;;;;;14.35;10.40;;;;;;;19.08;100.00;98719.56;5047653;28;20048;-77
2023/05/05 08:26:11;;;;;;;19.88;12.13;;;;;;;19.25;100.00;98723.91;5051307;28;20548;-77
2023/05/05 08:28:59;;;;;;;16.10;11.55;;;;;;;19.55;100.00;98725.88;5041503;28;20051;-77
2023/05/05 08:31:43;;;;;;;23.67;15.25;;;;;;;19.62;100.00;98730.13;5051611;28;20402;-78
2023/05/05 08:34:27;;;;;;;18.33;11.98;;;;;;;19.83;100.00;98729.13;5051060;28;20173;-78
2023/05/05 08:37:11;;;;;;;16.02;11.65;;;;;;;19.83;100.00;98729.13;5047033;28;20124;-77
2023/05/05 08:39:56;;;;;;;19.33;12.43;;;;;;;19.64;100.00;98736.00;5054088;28;20075;-77
2023/05/05 08:42:41;;;;;;;18.70;12.50;;;;;;;19.44;100.00;98737.53;5045930;28;20060;-78
2023/05/05 08:45:27;;;;;;;16.70;11.60;;;;;;;19.15;100.00;98735.28;5047680;28;20089;-78
2023/05/05 08:48:14;;;;;;;17.10;10.48;;;;;;;18.66;100.00;98744.28;5048055;28;20085;-78
2023/05/05 08:50:58;;;;;;;11.38;9.18;;;;;;;18.31;100.00;98743.75;5050063;28;20137;-77
2023/05/05 08:54:03;;;;;;;9.70;8.68;;;;;;;18.09;100.00;98744.63;5052698;28;20079;-78
2023/05/05 08:56:49;;;;;;;;;;;;;;;18.08;100.00;98750.19;5047484;28;20099;-77
2023/05/05 08:59:34;;;;;;;8.63;6.63;;;;;;;18.09;100.00;98747.28;5059122;28;19928;-77
2023/05/05 09:02:22;;;;;;;9.63;7.22;;;;;;;18.25;100.00;98753.53;5050596;28;20071;-77
2023/05/05 09:05:08;;;;;;;9.02;6.40;;;;;;;18.38;100.00;98747.00;5056504;28;20116;-77
2023/05/05 09:07:52;;;;;;;8.25;6.50;;;;;;;18.50;100.00;98751.34;5055111;28;20051;-77
2023/05/05 09:10:40;;;;;;;7.35;6.55;;;;;;;18.65;100.00;98759.41;5054629;28;20060;-77
2023/05/05 09:13:24;;;;;;;8.43;5.63;;;;;;;18.92;100.00;98758.56;5051906;28;20083;-78
2023/05/05 09:16:08;;;;;;;9.00;6.30;;;;;;;19.08;100.00;98756.00;5052279;28;20088;-77
2023/05/05 09:19:04;;;;;;;7.00;6.25;;;;;;;19.29;100.00;98756.13;5055590;28;20056;-78
2023/05/05 09:21:48;;;;;;;7.93;5.78;;;;;;;19.46;100.00;98750.59;5052483;28;20059;-78
2023/05/05 09:24:32;;;;;;;7.75;6.05;;;;;;;19.77;100.00;98762.16;5055623;28;20067;-79
2023/05/05 09:27:22;;;;;;;7.72;5.95;;;;;;;20.11;100.00;98753.72;5055095;28;20051;-79
2023/05/05 09:30:07;;;;;;;10.55;5.80;;;;;;;20.40;100.00;98753.19;5060240;28;20547;-79
2023/05/05 09:32:53;;;;;;;7.78;5.80;;;;;;;20.59;100.00;98752.66;5056493;28;20048;-79
2023/05/05 09:35:48;;;;;;;8.40;6.32;;;;;;;20.87;100.00;98749.72;5055221;28;20102;-77
2023/05/05 09:38:34;;;;;;;9.38;6.07;;;;;;;21.15;100.00;98751.00;5061584;28;22590;-78
2023/05/05 09:41:35;;;;;;;10.00;7.00;;;;;;;21.14;100.00;98749.41;5057138;28;20040;-78
2023/05/05 09:44:36;;;;;;;11.07;6.97;;;;;;;20.86;100.00;98753.47;5059692;28;20055;-78
2023/05/05 09:47:20;;;;;;;7.35;6.15;;;;;;;20.90;100.00;98755.34;5060384;28;20075;-78
2023/05/05 09:50:05;;;;;;;10.88;7.55;;;;;;;20.94;100.00;98751.06;5058634;28;20039;-78
2023/05/05 09:53:01;;;;;;;9.32;6.35;;;;;;;21.10;100.00;98743.00;5056265;28;20079;-78
2023/05/05 09:55:56;;;;;;;12.30;7.30;;;;;;;21.38;100.00;98748.78;5058459;28;20450;-79
2023/05/05 09:58:40;;;;;;;7.32;6.43;;;;;;;21.76;100.00;98746.50;5053303;28;20175;-78
2023/05/05 10:01:25;;;;;;;8.65;5.30;;;;;;;22.14;100.00;98743.34;5058995;28;20553;-78
2023/05/05 10:04:29;;;;;;;8.55;6.05;;;;;;;22.13;100.00;98736.38;5059910;28;20825;-78
2023/05/05 10:07:23;;;;;;;9.27;5.60;;;;;;;22.54;100.00;98746.78;5061080;28;20047;-82
2023/05/05 10:10:12;;;;;;;5.57;4.75;;;;;;;22.93;100.00;98731.69;5060933;28;20052;-77
2023/05/05 10:12:57;;;;;;;8.27;5.60;;;;;;;23.27;100.00;98729.22;5060775;28;20040;-77
2023/05/05 10:15:44;;;;;;;5.50;4.18;;;;;;;23.07;100.00;98731.00;5064133;28;20043;-77
2023/05/05 10:18:31;;;;;;;7.30;4.55;;;;;;;23.13;100.00;98732.53;5061270;28;20083;-77
2023/05/05 10:21:20;;;;;;;6.28;4.05;;;;;;;23.31;100.00;98727.53;5055051;28;20449;-77
2023/05/05 10:24:25;;;;;;;7.05;4.30;;;;;;;23.53;100.00;98725.09;5057120;28;20032;-82
2023/05/05 10:27:19;;;;;;;7.65;3.90;;;;;;;23.98;98.75;98731.19;5062272;28;20414;-83
2023/05/05 10:30:05;;;;;;;8.68;4.55;;;;;;;24.09;98.57;98722.75;5061909;28;20048;-82
2023/05/05 10:32:52;;;;;;;8.60;4.57;;;;;;;24.35;96.79;98725.00;5059765;28;20048;-82
2023/05/05 10:35:40;;;;;;;6.22;4.10;;;;;;;24.27;95.43;98722.19;5061266;28;20067;-77
2023/05/05 10:38:28;;;;;;;6.93;4.32;;;;;;;23.90;95.94;98724.59;5061235;28;20076;-77
2023/05/05 10:41:12;;;;;;;6.75;4.43;;;;;;;23.82;95.00;98718.84;5060246;28;20564;-77
2023/05/05 10:43:57;;;;;;;4.07;3.65;;;;;;;24.13;94.24;98716.78;5059173;28;20378;-78
2023/05/05 10:46:43;;;;;;;7.60;3.92;;;;;;;24.29;91.81;98718.13;5060329;28;20247;-78
2023/05/05 10:49:46;;;;;;;7.97;4.20;;;;;;;24.12;89.21;98725.91;5058573;28;20043;-78
2023/05/05 10:52:46;;;;;;;7.20;4.32;;;;;;;23.90;89.96;98711.22;5058850;28;20116;-78
2023/05/05 10:55:39;;;;;;;7.15;3.90;;;;;;;23.90;88.81;98719.25;5062944;28;20051;-78
2023/05/05 10:58:35;;;;;;;5.03;3.80;;;;;;;24.01;88.06;98715.34;5063957;28;20093;-79
2023/05/05 11:01:33;;;;;;;6.30;3.80;;;;;;;24.20;87.15;98717.22;5054179;28;20035;-78
2023/05/05 11:04:21;;;;;;;6.97;4.35;;;;;;;24.37;88.46;98712.13;5054969;28;20429;-78
2023/05/05 11:07:08;;;;;;;6.25;4.15;;;;;;;24.18;87.31;98716.72;5053839;28;20056;-79
2023/05/05 11:10:08;;;;;;;5.80;4.13;;;;;;;24.10;87.61;98708.25;5065980;28;20039;-78
2023/05/05 11:12:58;;;;;;;7.63;4.13;;;;;;;24.24;87.38;98704.81;5056054;28;20051;-79
2023/05/05 11:15:42;;;;;;;8.07;4.35;;;;;;;24.16;88.03;98708.16;5055132;28;20413;-78
2023/05/05 11:18:37;;;;;;;7.15;3.50;;;;;;;24.16;87.03;98698.25;5059242;28;20440;-78
2023/05/05 11:21:21;;;;;;;8.27;4.10;;;;;;;24.25;87.25;98706.41;5055205;28;20044;-78
2023/05/05 11:24:32;;;;;;;6.00;3.65;;;;;;;24.35;81.42;98695.50;5059661;28;20500;-78
2023/05/05 11:27:16;;;;;;;7.13;4.05;;;;;;;24.42;80.45;98703.16;5059756;28;20059;-78
2023/05/05 11:30:07;;;;;;;5.82;3.55;;;;;;;24.58;82.35;98698.34;5059842;28;20102;-79
2023/05/05 11:33:24;;;;;;;11.30;4.85;;;;;;;25.03;80.95;98699.69;5060329;28;20514;-78
2023/05/05 11:36:11;;;;;;;6.93;4.35;;;;;;;25.45;80.98;98697.72;5057758;28;20067;-78
2023/05/05 11:39:21;;;;;;;6.20;4.32;;;;;;;25.48;78.27;98683.72;5057271;28;20090;-78
2023/05/05 11:42:24;;;;;;;7.43;4.00;;;;;;;25.36;79.45;98678.06;5061341;28;20063;-79
2023/05/05 11:45:28;;;;;;;5.50;3.38;;;;;;;24.44;78.13;98689.47;5052396;28;20167;-79
2023/05/05 11:48:27;;;;;;;;;;;;;;;24.45;75.45;98680.31;5058335;28;20060;-77
2023/05/05 11:51:13;;;;;;;6.20;3.65;;;;;;;24.30;78.51;98674.13;5053286;28;19935;-78
2023/05/05 11:53:57;;;;;;;4.50;3.20;;;;;;;24.29;74.88;98669.88;5054018;28;20160;-79
2023/05/05 11:56:49;;;;;;;5.40;3.30;;;;;;;24.47;78.18;98673.59;5055524;28;20095;-78
2023/05/05 11:59:36;;;;;;;6.68;3.53;;;;;;;24.52;79.63;98678.03;5048756;28;20048;-78
2023/05/05 12:02:21;;;;;;;6.30;3.33;;;;;;;24.74;77.21;98677.38;5053988;28;20048;-79
2023/05/05 12:05:07;;;;;;;4.53;3.13;;;;;;;24.43;75.17;98677.16;5059085;28;20142;-79
2023/05/05 12:07:56;;;;;;;7.45;3.38;;;;;;;24.01;78.86;98683.19;5056557;28;20521;-79
2023/05/05 12:10:40;;;;;;;7.35;3.88;;;;;;;23.88;82.05;98689.25;5059074;28;20043;-79
2023/05/05 12:13:24;;;;;;;7.47;3.70;;;;;;;23.72;82.31;98691.38;5054134;28;20048;-79
2023/05/05 12:16:13;;;;;;;6.38;3.28;;;;;;;23.40;84.43;98691.03;5056099;28;20051;-79
2023/05/05 12:19:05;;;;;;;6.72;3.20;;;;;;;23.37;85.16;98686.22;5052110;28;20052;-81
2023/05/05 12:21:49;;;;;;;6.60;2.88;;;;;;;23.44;83.39;98681.31;5057947;28;20106;-79
2023/05/05 12:24:33;;;;;;;9.35;3.03;;;;;;;23.73;81.82;98676.91;5056268;28;20067;-79
2023/05/05 12:27:18;;;;;;;5.88;2.85;;;;;;;23.88;79.54;98673.19;5052750;28;20047;-82
2023/05/05 12:30:16;;;;;;;4.63;2.35;;;;;;;24.08;80.64;98672.09;5060797;28;20046;-82
2023/05/05 12:33:05;;;;;;;3.88;2.20;;;;;;;23.80;79.58;98677.31;5059042;28;20086;-81
2023/05/05 12:35:49;;;;;;;3.08;2.10;;;;;;;23.32;80.52;98680.94;5054221;28;20179;-79
2023/05/05 12:38:34;;;;;;;2.30;2.10;;;;;;;23.55;78.08;98676.63;5055809;28;20128;-79
2023/05/05 12:41:19;;;;;;;3.15;2.50;;;;;;;23.51;77.07;98665.66;5050917;28;20387;-79
2023/05/05 12:44:03;;;;;;;6.13;2.55;;;;;;;23.59;79.78;98676.84;5057494;28;20608;-79
2023/05/05 12:46:48;;;;;;;3.95;2.53;;;;;;;23.93;80.17;98671.22;5058207;28;20075;-80
2023/05/05 12:49:54;;;;;;;3.78;3.42;;;;;;;24.46;74.82;98676.56;5058783;28;20067;-80